Airfield :
LOGIN :

Register | Disclaimer

   EN    FR    IT 

 










Legend :    VFR   Marginal VFR   IFR   Intensive IFR   Very Intensive IFR
Visi :
Ceiling :
>= 8 km
>= 3000ft
5 to 8 km
1000 to 3000 ft
1500m to 5 km
500 to 1000 ft
800 to 1500m
200 to 500 ft
< 800m
< 200 ft
Symbols :   Thunderstorms  Fog  Heavy snow  Heavy precipitations  Wind > 20 kt
SIGMETs :     Misc.  Thunderstorms  Icing  Turbulence  Mountain Waves  Volcanic Ashes






- Airport Elevation : 354 ft
- IATA code : OER


ESNO - Örnsköldsvik

CURRENT METAR :
  • 200150Z AUTO 33016G28KT 300V360 9999 OVC084/// M02/M09 Q0987

EXPIRED METARs :
  • 200120Z AUTO 33014G24KT 290V010 9999 BKN068/// OVC082/// M02/M09 Q0987
  • 200050Z AUTO 33014KT 290V360 9999 OVC068/// M02/M09 Q0987
  • 200020Z AUTO 32014G25KT 290V350 9999 OVC068/// M02/M09 Q0987
  • 192350Z AUTO 32014KT 290V350 9999 SCT076/// BKN100/// M01/M09 Q0986
  • 192320Z AUTO 32015G26KT 300V360 9999 OVC100/// M01/M09 Q0986

Expired Forecast.



MET'MAP, your aeronautical weather chart ! - Copyright ORBIFLY December 2007 - Disclaimer

ORBIFLY MET'MAP TEAM :

Programming & Development : Alexandra Zaïnal
Concept & original design : Baudouin d'Aumeries
Assistance for programming : Marc-Olivier Méhu
Technical & hardware support : Manuel Goepfert

Contact : metmap@orbifly.com




SOURCES & CREDITS :

   NOAA